sensor_id;sensor_type;location;lat;lon;timestamp;P1;durP1;ratioP1;P2;durP2;ratioP2
61570;SDS011;47463;49.884;10.010;2023-04-03T00:00:00;7.1;;;4.5;;
61570;SDS011;47463;49.884;10.010;2023-04-03T00:05:00;7.1;;;4.5;;
61570;SDS011;47463;49.884;10.010;2023-04-03T00:10:00;6.7;;;4.6;;
61570;SDS011;47463;49.884;10.010;2023-04-03T00:15:00;8.2;;;4.9;;
61570;SDS011;47463;49.884;10.010;2023-04-03T00:20:00;8.7;;;4.8;;
61570;SDS011;47463;49.884;10.010;2023-04-03T00:25:00;8.2;;;5.4;;
61570;SDS011;47463;49.884;10.010;2023-04-03T00:30:00;9.3;;;5.2;;
61570;SDS011;47463;49.884;10.010;2023-04-03T00:35:00;9.3;;;5.2;;
61570;SDS011;47463;49.884;10.010;2023-04-03T00:40:00;9.1;;;6;;
61570;SDS011;47463;49.884;10.010;2023-04-03T00:45:33;8.3;;;5.4;;
61570;SDS011;47463;49.884;10.010;2023-04-03T00:50:00;7.7;;;5.7;;
61570;SDS011;47463;49.884;10.010;2023-04-03T00:55:02;7.2;;;5.1;;
61570;SDS011;47463;49.884;10.010;2023-04-03T01:00:01;7.8;;;5.6;;
61570;SDS011;47463;49.884;10.010;2023-04-03T01:05:00;7.8;;;5.6;;
61570;SDS011;47463;49.884;10.010;2023-04-03T01:10:00;8.5;;;5.3;;
61570;SDS011;47463;49.884;10.010;2023-04-03T01:15:00;7.8;;;5.6;;
61570;SDS011;47463;49.884;10.010;2023-04-03T01:20:05;9.3;;;5.5;;
61570;SDS011;47463;49.884;10.010;2023-04-03T01:25:00;10.1;;;5.6;;
61570;SDS011;47463;49.884;10.010;2023-04-03T01:30:00;8.7;;;5.4;;
61570;SDS011;47463;49.884;10.010;2023-04-03T01:35:00;8.7;;;5.4;;
61570;SDS011;47463;49.884;10.010;2023-04-03T01:40:00;7.9;;;5.1;;
61570;SDS011;47463;49.884;10.010;2023-04-03T01:45:00;7.3;;;5.1;;
61570;SDS011;47463;49.884;10.010;2023-04-03T01:50:00;8.8;;;5.4;;
61570;SDS011;47463;49.884;10.010;2023-04-03T01:55:00;8.8;;;5.8;;
61570;SDS011;47463;49.884;10.010;2023-04-03T02:00:00;9.1;;;5.8;;
61570;SDS011;47463;49.884;10.010;2023-04-03T02:05:00;9.1;;;5.8;;
61570;SDS011;47463;49.884;10.010;2023-04-03T02:10:00;10.1;;;5.9;;
61570;SDS011;47463;49.884;10.010;2023-04-03T02:15:00;9.8;;;6.4;;
61570;SDS011;47463;49.884;10.010;2023-04-03T02:20:00;7.6;;;5.8;;
61570;SDS011;47463;49.884;10.010;2023-04-03T02:25:00;9.5;;;6.4;;
61570;SDS011;47463;49.884;10.010;2023-04-03T02:30:00;12.2;;;7.6;;
61570;SDS011;47463;49.884;10.010;2023-04-03T02:35:00;12.2;;;7.6;;
61570;SDS011;47463;49.884;10.010;2023-04-03T02:40:00;9.9;;;6.6;;
61570;SDS011;47463;49.884;10.010;2023-04-03T02:45:00;11.6;;;7;;
61570;SDS011;47463;49.884;10.010;2023-04-03T02:50:00;11.8;;;7.2;;
61570;SDS011;47463;49.884;10.010;2023-04-03T02:55:00;11.3;;;7.3;;
61570;SDS011;47463;49.884;10.010;2023-04-03T03:00:00;13.4;;;7.4;;
61570;SDS011;47463;49.884;10.010;2023-04-03T03:05:00;13.4;;;7.4;;
61570;SDS011;47463;49.884;10.010;2023-04-03T03:10:00;10.1;;;6.9;;
61570;SDS011;47463;49.884;10.010;2023-04-03T03:15:00;9.5;;;7.2;;
61570;SDS011;47463;49.884;10.010;2023-04-03T03:20:00;12.2;;;7;;
61570;SDS011;47463;49.884;10.010;2023-04-03T03:25:00;10.2;;;6.4;;
61570;SDS011;47463;49.884;10.010;2023-04-03T03:30:00;10;;;6.2;;
61570;SDS011;47463;49.884;10.010;2023-04-03T03:35:00;10;;;6.2;;
61570;SDS011;47463;49.884;10.010;2023-04-03T03:40:00;9.7;;;5.9;;
61570;SDS011;47463;49.884;10.010;2023-04-03T03:45:00;9.7;;;6.1;;
61570;SDS011;47463;49.884;10.010;2023-04-03T03:50:00;9.5;;;6.4;;
61570;SDS011;47463;49.884;10.010;2023-04-03T03:55:00;11;;;6.4;;
61570;SDS011;47463;49.884;10.010;2023-04-03T04:00:00;9.2;;;6.4;;
61570;SDS011;47463;49.884;10.010;2023-04-03T04:05:00;9.2;;;6.4;;
61570;SDS011;47463;49.884;10.010;2023-04-03T04:10:00;12.5;;;7.1;;
61570;SDS011;47463;49.884;10.010;2023-04-03T04:15:00;11.8;;;6.6;;
61570;SDS011;47463;49.884;10.010;2023-04-03T04:20:00;11.2;;;6.5;;
61570;SDS011;47463;49.884;10.010;2023-04-03T04:25:00;9.2;;;6.2;;
61570;SDS011;47463;49.884;10.010;2023-04-03T04:30:00;10.7;;;6;;
61570;SDS011;47463;49.884;10.010;2023-04-03T04:35:00;10.7;;;6;;
61570;SDS011;47463;49.884;10.010;2023-04-03T04:40:00;8.5;;;6.8;;
61570;SDS011;47463;49.884;10.010;2023-04-03T04:45:00;11.3;;;6.8;;
61570;SDS011;47463;49.884;10.010;2023-04-03T04:50:00;17.7;;;8.1;;
61570;SDS011;47463;49.884;10.010;2023-04-03T04:55:00;12.1;;;6.9;;
61570;SDS011;47463;49.884;10.010;2023-04-03T05:00:00;13.3;;;7.4;;
61570;SDS011;47463;49.884;10.010;2023-04-03T05:05:00;13.3;;;7.4;;
61570;SDS011;47463;49.884;10.010;2023-04-03T05:10:00;15.3;;;7.3;;
61570;SDS011;47463;49.884;10.010;2023-04-03T05:15:00;9.8;;;6.7;;
61570;SDS011;47463;49.884;10.010;2023-04-03T05:20:00;13.8;;;7.3;;
61570;SDS011;47463;49.884;10.010;2023-04-03T05:25:00;9.5;;;6.3;;
61570;SDS011;47463;49.884;10.010;2023-04-03T05:30:00;8.8;;;6.5;;
61570;SDS011;47463;49.884;10.010;2023-04-03T05:35:00;8.8;;;6.5;;
61570;SDS011;47463;49.884;10.010;2023-04-03T05:40:00;11.2;;;6.2;;
61570;SDS011;47463;49.884;10.010;2023-04-03T05:45:00;13.8;;;7.6;;
61570;SDS011;47463;49.884;10.010;2023-04-03T05:50:00;9.6;;;6;;
61570;SDS011;47463;49.884;10.010;2023-04-03T05:55:00;8.1;;;5.2;;
61570;SDS011;47463;49.884;10.010;2023-04-03T06:00:00;7.1;;;5.5;;
61570;SDS011;47463;49.884;10.010;2023-04-03T06:05:00;7.1;;;5.5;;
61570;SDS011;47463;49.884;10.010;2023-04-03T06:10:00;8;;;5.1;;
61570;SDS011;47463;49.884;10.010;2023-04-03T06:15:00;7.9;;;4.8;;
61570;SDS011;47463;49.884;10.010;2023-04-03T06:20:00;10.1;;;5;;
61570;SDS011;47463;49.884;10.010;2023-04-03T06:25:00;12.7;;;4.8;;
61570;SDS011;47463;49.884;10.010;2023-04-03T06:30:00;9;;;5;;
61570;SDS011;47463;49.884;10.010;2023-04-03T06:35:00;9;;;5;;
61570;SDS011;47463;49.884;10.010;2023-04-03T06:40:00;9.3;;;5.3;;
61570;SDS011;47463;49.884;10.010;2023-04-03T06:45:00;8.1;;;5;;
61570;SDS011;47463;49.884;10.010;2023-04-03T06:50:00;8.8;;;5;;
61570;SDS011;47463;49.884;10.010;2023-04-03T06:55:00;8.2;;;4.4;;
61570;SDS011;47463;49.884;10.010;2023-04-03T07:00:00;9.7;;;4.6;;
61570;SDS011;47463;49.884;10.010;2023-04-03T07:05:00;9.7;;;4.6;;
61570;SDS011;47463;49.884;10.010;2023-04-03T07:10:00;8.7;;;4.5;;
61570;SDS011;47463;49.884;10.010;2023-04-03T07:15:00;9.2;;;4.9;;
61570;SDS011;47463;49.884;10.010;2023-04-03T07:20:00;7.6;;;4.3;;
61570;SDS011;47463;49.884;10.010;2023-04-03T07:25:00;6.6;;;4.4;;
61570;SDS011;47463;49.884;10.010;2023-04-03T07:30:00;10.6;;;4.7;;
61570;SDS011;47463;49.884;10.010;2023-04-03T07:35:00;10.6;;;4.7;;
61570;SDS011;47463;49.884;10.010;2023-04-03T07:40:00;5.9;;;4.1;;
61570;SDS011;47463;49.884;10.010;2023-04-03T07:45:00;10;;;4.1;;
61570;SDS011;47463;49.884;10.010;2023-04-03T07:50:00;8.3;;;3.9;;
61570;SDS011;47463;49.884;10.010;2023-04-03T07:55:00;7.2;;;3.9;;
61570;SDS011;47463;49.884;10.010;2023-04-03T08:00:00;6.3;;;3.8;;
61570;SDS011;47463;49.884;10.010;2023-04-03T08:05:00;6.3;;;3.8;;
61570;SDS011;47463;49.884;10.010;2023-04-03T08:10:00;6.6;;;3.9;;
61570;SDS011;47463;49.884;10.010;2023-04-03T08:15:00;8.1;;;3.9;;
61570;SDS011;47463;49.884;10.010;2023-04-03T08:20:00;7.3;;;3.9;;
61570;SDS011;47463;49.884;10.010;2023-04-03T08:25:00;8.1;;;4.7;;
61570;SDS011;47463;49.884;10.010;2023-04-03T08:30:00;5.6;;;3.3;;
61570;SDS011;47463;49.884;10.010;2023-04-03T08:35:00;5.6;;;3.3;;
61570;SDS011;47463;49.884;10.010;2023-04-03T08:40:00;5.5;;;3.7;;
61570;SDS011;47463;49.884;10.010;2023-04-03T08:45:01;5.5;;;3.5;;
61570;SDS011;47463;49.884;10.010;2023-04-03T08:50:00;6.6;;;3.7;;
61570;SDS011;47463;49.884;10.010;2023-04-03T08:55:00;6.3;;;3.5;;
61570;SDS011;47463;49.884;10.010;2023-04-03T09:00:03;6.9;;;3.7;;
61570;SDS011;47463;49.884;10.010;2023-04-03T09:05:01;6.9;;;3.7;;
61570;SDS011;47463;49.884;10.010;2023-04-03T09:10:00;6.3;;;3;;
61570;SDS011;47463;49.884;10.010;2023-04-03T09:15:02;5.9;;;2.9;;
61570;SDS011;47463;49.884;10.010;2023-04-03T09:20:03;4.2;;;2.4;;
61570;SDS011;47463;49.884;10.010;2023-04-03T09:25:00;4;;;2.5;;
61570;SDS011;47463;49.884;10.010;2023-04-03T09:30:00;5.6;;;2.6;;
61570;SDS011;47463;49.884;10.010;2023-04-03T09:35:01;5.6;;;2.6;;
61570;SDS011;47463;49.884;10.010;2023-04-03T09:40:00;5.3;;;2.6;;
61570;SDS011;47463;49.884;10.010;2023-04-03T09:45:00;3.2;;;2.3;;
61570;SDS011;47463;49.884;10.010;2023-04-03T09:50:17;5.5;;;3;;
61570;SDS011;47463;49.884;10.010;2023-04-03T09:55:02;4.7;;;2.7;;
61570;SDS011;47463;49.884;10.010;2023-04-03T10:00:00;5.3;;;2.7;;
61570;SDS011;47463;49.884;10.010;2023-04-03T10:05:00;5.3;;;2.7;;
61570;SDS011;47463;49.884;10.010;2023-04-03T10:10:00;5.4;;;2.7;;
61570;SDS011;47463;49.884;10.010;2023-04-03T10:15:00;5.7;;;2.8;;
61570;SDS011;47463;49.884;10.010;2023-04-03T10:20:00;4.7;;;2.8;;
61570;SDS011;47463;49.884;10.010;2023-04-03T10:25:02;4.9;;;2.3;;
61570;SDS011;47463;49.884;10.010;2023-04-03T10:30:02;4.7;;;2.5;;
61570;SDS011;47463;49.884;10.010;2023-04-03T10:35:01;4.7;;;2.5;;
61570;SDS011;47463;49.884;10.010;2023-04-03T10:40:01;8.7;;;2.2;;
61570;SDS011;47463;49.884;10.010;2023-04-03T10:45:03;2.7;;;1.8;;
61570;SDS011;47463;49.884;10.010;2023-04-03T10:50:01;3.3;;;1.7;;
61570;SDS011;47463;49.884;10.010;2023-04-03T10:55:02;5.3;;;2;;
61570;SDS011;47463;49.884;10.010;2023-04-03T11:00:01;6.5;;;2.7;;
61570;SDS011;47463;49.884;10.010;2023-04-03T11:05:01;6.5;;;2.7;;
61570;SDS011;47463;49.884;10.010;2023-04-03T11:10:00;3;;;1.6;;
61570;SDS011;47463;49.884;10.010;2023-04-03T11:15:00;7.8;;;2.3;;
61570;SDS011;47463;49.884;10.010;2023-04-03T11:20:01;3.2;;;1.7;;
61570;SDS011;47463;49.884;10.010;2023-04-03T11:25:02;3.6;;;2;;
61570;SDS011;47463;49.884;10.010;2023-04-03T11:30:00;5.1;;;2;;
61570;SDS011;47463;49.884;10.010;2023-04-03T11:35:00;5.1;;;2;;
61570;SDS011;47463;49.884;10.010;2023-04-03T11:40:00;4.5;;;2.3;;
61570;SDS011;47463;49.884;10.010;2023-04-03T11:45:16;3.9;;;1.7;;
61570;SDS011;47463;49.884;10.010;2023-04-03T11:50:00;4.6;;;1.9;;
61570;SDS011;47463;49.884;10.010;2023-04-03T11:55:00;2.7;;;1.7;;
61570;SDS011;47463;49.884;10.010;2023-04-03T12:00:00;3.8;;;1.9;;
61570;SDS011;47463;49.884;10.010;2023-04-03T12:05:31;3.8;;;1.9;;
61570;SDS011;47463;49.884;10.010;2023-04-03T12:10:00;3.1;;;2;;
61570;SDS011;47463;49.884;10.010;2023-04-03T12:16:05;4.4;;;2.2;;
61570;SDS011;47463;49.884;10.010;2023-04-03T12:20:00;3.5;;;1.8;;
61570;SDS011;47463;49.884;10.010;2023-04-03T12:25:00;4.4;;;1.9;;
61570;SDS011;47463;49.884;10.010;2023-04-03T12:30:03;3.9;;;2.2;;
61570;SDS011;47463;49.884;10.010;2023-04-03T12:35:03;3.9;;;2.2;;
61570;SDS011;47463;49.884;10.010;2023-04-03T12:40:01;3.9;;;1.9;;
61570;SDS011;47463;49.884;10.010;2023-04-03T12:45:00;4.7;;;2;;
61570;SDS011;47463;49.884;10.010;2023-04-03T12:50:00;4.3;;;2.4;;
61570;SDS011;47463;49.884;10.010;2023-04-03T12:55:00;3.7;;;2;;
61570;SDS011;47463;49.884;10.010;2023-04-03T13:00:00;2.4;;;1.9;;
61570;SDS011;47463;49.884;10.010;2023-04-03T13:05:06;2.4;;;1.9;;
61570;SDS011;47463;49.884;10.010;2023-04-03T13:10:02;2.7;;;1.8;;
61570;SDS011;47463;49.884;10.010;2023-04-03T13:15:00;5.2;;;2.1;;
61570;SDS011;47463;49.884;10.010;2023-04-03T13:20:09;4.8;;;2.3;;
61570;SDS011;47463;49.884;10.010;2023-04-03T13:25:00;4.3;;;2.1;;
61570;SDS011;47463;49.884;10.010;2023-04-03T13:30:01;5.9;;;2.6;;
61570;SDS011;47463;49.884;10.010;2023-04-03T13:35:00;5.9;;;2.6;;
61570;SDS011;47463;49.884;10.010;2023-04-03T13:40:01;5.1;;;2.3;;
61570;SDS011;47463;49.884;10.010;2023-04-03T13:45:17;5.3;;;2.3;;
61570;SDS011;47463;49.884;10.010;2023-04-03T13:50:00;4;;;1.7;;
61570;SDS011;47463;49.884;10.010;2023-04-03T13:55:00;4.4;;;1.9;;
61570;SDS011;47463;49.884;10.010;2023-04-03T14:00:00;3.3;;;2.2;;
61570;SDS011;47463;49.884;10.010;2023-04-03T14:05:00;3.3;;;2.2;;
61570;SDS011;47463;49.884;10.010;2023-04-03T14:10:00;4.2;;;2;;
61570;SDS011;47463;49.884;10.010;2023-04-03T14:15:00;4.1;;;2.1;;
61570;SDS011;47463;49.884;10.010;2023-04-03T14:20:00;3.7;;;2.1;;
61570;SDS011;47463;49.884;10.010;2023-04-03T14:25:00;3.3;;;2.2;;
61570;SDS011;47463;49.884;10.010;2023-04-03T14:30:00;6.4;;;1.9;;
61570;SDS011;47463;49.884;10.010;2023-04-03T14:35:00;6.4;;;1.9;;
61570;SDS011;47463;49.884;10.010;2023-04-03T14:40:00;3.2;;;1.9;;
61570;SDS011;47463;49.884;10.010;2023-04-03T14:45:00;5.1;;;2.1;;
61570;SDS011;47463;49.884;10.010;2023-04-03T14:50:00;5.2;;;2.1;;
61570;SDS011;47463;49.884;10.010;2023-04-03T14:55:00;3.1;;;2;;
61570;SDS011;47463;49.884;10.010;2023-04-03T15:00:00;3.6;;;1.9;;
61570;SDS011;47463;49.884;10.010;2023-04-03T15:05:00;3.6;;;1.9;;
61570;SDS011;47463;49.884;10.010;2023-04-03T15:10:00;3.1;;;1.8;;
61570;SDS011;47463;49.884;10.010;2023-04-03T15:15:00;5.4;;;1.8;;
61570;SDS011;47463;49.884;10.010;2023-04-03T15:20:00;2.4;;;1.4;;
61570;SDS011;47463;49.884;10.010;2023-04-03T15:25:00;4.6;;;2;;
61570;SDS011;47463;49.884;10.010;2023-04-03T15:30:00;3.6;;;1.5;;
61570;SDS011;47463;49.884;10.010;2023-04-03T15:35:00;3.6;;;1.5;;
61570;SDS011;47463;49.884;10.010;2023-04-03T15:40:00;4;;;1.8;;
61570;SDS011;47463;49.884;10.010;2023-04-03T15:45:00;3;;;2;;
61570;SDS011;47463;49.884;10.010;2023-04-03T15:50:00;2.8;;;1.6;;
61570;SDS011;47463;49.884;10.010;2023-04-03T15:55:00;3.7;;;1.6;;
61570;SDS011;47463;49.884;10.010;2023-04-03T16:00:00;2.7;;;1.4;;
61570;SDS011;47463;49.884;10.010;2023-04-03T16:05:00;2.7;;;1.4;;
61570;SDS011;47463;49.884;10.010;2023-04-03T16:10:00;2.3;;;1.5;;
61570;SDS011;47463;49.884;10.010;2023-04-03T16:15:00;4.9;;;1.5;;
61570;SDS011;47463;49.884;10.010;2023-04-03T16:20:00;3.2;;;1.5;;
61570;SDS011;47463;49.884;10.010;2023-04-03T16:25:00;3.3;;;1.9;;
61570;SDS011;47463;49.884;10.010;2023-04-03T16:30:00;6.5;;;1.8;;
61570;SDS011;47463;49.884;10.010;2023-04-03T16:35:00;6.5;;;1.8;;
61570;SDS011;47463;49.884;10.010;2023-04-03T16:40:00;3.1;;;1.8;;
61570;SDS011;47463;49.884;10.010;2023-04-03T16:45:00;4.1;;;1.7;;
61570;SDS011;47463;49.884;10.010;2023-04-03T16:50:00;4.1;;;2.2;;
61570;SDS011;47463;49.884;10.010;2023-04-03T16:55:00;4.8;;;2;;
61570;SDS011;47463;49.884;10.010;2023-04-03T17:00:00;5.1;;;2.1;;
61570;SDS011;47463;49.884;10.010;2023-04-03T17:05:00;5.1;;;2.1;;
61570;SDS011;47463;49.884;10.010;2023-04-03T17:10:00;3.2;;;2;;
61570;SDS011;47463;49.884;10.010;2023-04-03T17:15:00;3.7;;;1.6;;
61570;SDS011;47463;49.884;10.010;2023-04-03T17:20:00;5.3;;;2;;
61570;SDS011;47463;49.884;10.010;2023-04-03T17:25:00;4.6;;;1.9;;
61570;SDS011;47463;49.884;10.010;2023-04-03T17:30:00;2.8;;;1.7;;
61570;SDS011;47463;49.884;10.010;2023-04-03T17:35:00;2.8;;;1.7;;
61570;SDS011;47463;49.884;10.010;2023-04-03T17:40:00;4.4;;;2;;
61570;SDS011;47463;49.884;10.010;2023-04-03T17:45:00;4.6;;;2.1;;
61570;SDS011;47463;49.884;10.010;2023-04-03T17:50:00;3.3;;;1.8;;
61570;SDS011;47463;49.884;10.010;2023-04-03T17:55:00;4.8;;;1.9;;
61570;SDS011;47463;49.884;10.010;2023-04-03T18:00:00;3;;;1.9;;
61570;SDS011;47463;49.884;10.010;2023-04-03T18:05:00;3;;;1.9;;
61570;SDS011;47463;49.884;10.010;2023-04-03T18:10:00;3.7;;;1.9;;
61570;SDS011;47463;49.884;10.010;2023-04-03T18:15:00;4.9;;;2.2;;
61570;SDS011;47463;49.884;10.010;2023-04-03T18:20:00;4.8;;;2;;
61570;SDS011;47463;49.884;10.010;2023-04-03T18:25:00;3.9;;;1.8;;
61570;SDS011;47463;49.884;10.010;2023-04-03T18:30:00;3.8;;;1.8;;
61570;SDS011;47463;49.884;10.010;2023-04-03T18:35:00;3.8;;;1.8;;
61570;SDS011;47463;49.884;10.010;2023-04-03T18:40:00;2.9;;;1.6;;
61570;SDS011;47463;49.884;10.010;2023-04-03T18:45:00;3;;;1.7;;
61570;SDS011;47463;49.884;10.010;2023-04-03T18:50:00;3.7;;;2;;
61570;SDS011;47463;49.884;10.010;2023-04-03T18:55:00;4.2;;;2.3;;
61570;SDS011;47463;49.884;10.010;2023-04-03T19:00:00;6;;;2.3;;
61570;SDS011;47463;49.884;10.010;2023-04-03T19:05:00;6;;;2.3;;
61570;SDS011;47463;49.884;10.010;2023-04-03T19:10:00;3.8;;;2.3;;
61570;SDS011;47463;49.884;10.010;2023-04-03T19:15:00;4.4;;;2.2;;
61570;SDS011;47463;49.884;10.010;2023-04-03T19:20:00;5.3;;;2.2;;
61570;SDS011;47463;49.884;10.010;2023-04-03T19:25:00;3.6;;;2.2;;
61570;SDS011;47463;49.884;10.010;2023-04-03T19:30:00;3.7;;;2.2;;
61570;SDS011;47463;49.884;10.010;2023-04-03T19:35:00;3.7;;;2.2;;
61570;SDS011;47463;49.884;10.010;2023-04-03T19:40:00;5;;;2.4;;
61570;SDS011;47463;49.884;10.010;2023-04-03T19:45:00;8.2;;;2.6;;
61570;SDS011;47463;49.884;10.010;2023-04-03T19:50:00;3.6;;;2.3;;
61570;SDS011;47463;49.884;10.010;2023-04-03T19:55:00;4.9;;;2.8;;
61570;SDS011;47463;49.884;10.010;2023-04-03T20:00:00;5.1;;;2.4;;
61570;SDS011;47463;49.884;10.010;2023-04-03T20:05:00;5.1;;;2.4;;
61570;SDS011;47463;49.884;10.010;2023-04-03T20:10:00;4.5;;;2.6;;
61570;SDS011;47463;49.884;10.010;2023-04-03T20:15:00;4.5;;;2.3;;
61570;SDS011;47463;49.884;10.010;2023-04-03T20:20:00;6.4;;;2.9;;
61570;SDS011;47463;49.884;10.010;2023-04-03T20:25:00;4.9;;;2.6;;
61570;SDS011;47463;49.884;10.010;2023-04-03T20:30:00;4.2;;;3;;
61570;SDS011;47463;49.884;10.010;2023-04-03T20:35:00;4.2;;;3;;
61570;SDS011;47463;49.884;10.010;2023-04-03T20:40:00;4;;;2.8;;
61570;SDS011;47463;49.884;10.010;2023-04-03T20:45:00;6.7;;;3.2;;
61570;SDS011;47463;49.884;10.010;2023-04-03T20:50:00;4.7;;;2.8;;
61570;SDS011;47463;49.884;10.010;2023-04-03T20:55:00;5.5;;;3.1;;
61570;SDS011;47463;49.884;10.010;2023-04-03T21:00:00;6.3;;;3.4;;
61570;SDS011;47463;49.884;10.010;2023-04-03T21:05:00;6.3;;;3.4;;
61570;SDS011;47463;49.884;10.010;2023-04-03T21:20:00;5.4;;;2.6;;
61570;SDS011;47463;49.884;10.010;2023-04-03T21:25:00;5.9;;;3;;
61570;SDS011;47463;49.884;10.010;2023-04-03T21:30:00;6.8;;;3.5;;
61570;SDS011;47463;49.884;10.010;2023-04-03T21:35:00;6.8;;;3.5;;
61570;SDS011;47463;49.884;10.010;2023-04-03T21:40:00;6.3;;;3.5;;
61570;SDS011;47463;49.884;10.010;2023-04-03T21:45:00;5.5;;;3.5;;
61570;SDS011;47463;49.884;10.010;2023-04-03T21:50:00;5.4;;;3.8;;
61570;SDS011;47463;49.884;10.010;2023-04-03T21:55:00;5.7;;;4.1;;
61570;SDS011;47463;49.884;10.010;2023-04-03T22:00:00;6.2;;;4.2;;
61570;SDS011;47463;49.884;10.010;2023-04-03T22:05:00;6.2;;;4.2;;
61570;SDS011;47463;49.884;10.010;2023-04-03T22:10:00;6.1;;;4.5;;
61570;SDS011;47463;49.884;10.010;2023-04-03T22:15:00;6.3;;;4.3;;
61570;SDS011;47463;49.884;10.010;2023-04-03T22:20:00;5.9;;;4.3;;
61570;SDS011;47463;49.884;10.010;2023-04-03T22:25:00;6.2;;;4.3;;
61570;SDS011;47463;49.884;10.010;2023-04-03T22:30:00;4.8;;;3.7;;
61570;SDS011;47463;49.884;10.010;2023-04-03T22:35:00;4.8;;;3.7;;
61570;SDS011;47463;49.884;10.010;2023-04-03T22:40:00;6.3;;;3.7;;
61570;SDS011;47463;49.884;10.010;2023-04-03T22:45:00;4.2;;;3.5;;
61570;SDS011;47463;49.884;10.010;2023-04-03T22:50:00;4.9;;;3;;
61570;SDS011;47463;49.884;10.010;2023-04-03T22:55:00;3.5;;;2.7;;
61570;SDS011;47463;49.884;10.010;2023-04-03T23:00:00;5;;;2.9;;
61570;SDS011;47463;49.884;10.010;2023-04-03T23:05:00;5;;;2.9;;
61570;SDS011;47463;49.884;10.010;2023-04-03T23:10:00;4.9;;;2.9;;
61570;SDS011;47463;49.884;10.010;2023-04-03T23:15:00;4.9;;;2.8;;
61570;SDS011;47463;49.884;10.010;2023-04-03T23:20:00;4.3;;;2.7;;
61570;SDS011;47463;49.884;10.010;2023-04-03T23:25:00;8.8;;;3.5;;
61570;SDS011;47463;49.884;10.010;2023-04-03T23:30:00;4;;;2.8;;
61570;SDS011;47463;49.884;10.010;2023-04-03T23:35:00;4;;;2.8;;
61570;SDS011;47463;49.884;10.010;2023-04-03T23:40:00;5.9;;;3.3;;
61570;SDS011;47463;49.884;10.010;2023-04-03T23:45:00;5.6;;;3.3;;
61570;SDS011;47463;49.884;10.010;2023-04-03T23:50:00;6.2;;;3.3;;
61570;SDS011;47463;49.884;10.010;2023-04-03T23:55:00;5.1;;;3.4;;
